Turtlepoint, Pennsylvania
Current Conditions -  °F | °C
As of 2:53 PM on Saturday 25 Oct 2014 (Local Time) from KBFD Reporting Station
Overcast Overcast  
Wind Chill: 59°   Ceiling: 3100
Heat Index: 59°   Visibility: 10mi
Dew Point: 45°   Wind: 9mph
Humidity: 60%   Direction: 240°WSW
Pressure: 29.72"   Gusts: 18mph
Location:  41.87°N, 78.34°W
Report Text: KBFD 251853Z AUTO 24008G16KT 210V270 10SM OVC031 15/07 A2972 RMK AO2 SLP063 T01500072
Loading
Personal Weather Stations






























Interactive Weather Map
Tropical Storm Tracking
New forecast layout! Learn more

10-Day Weather Forecast

Advertisements
Track Severe Weather on mobile